sensor_id;sensor_type;location;lat;lon;timestamp;P1;durP1;ratioP1;P2;durP2;ratioP2
29662;SDS011;16578;53.266;7.920;2023-10-19T00:00:45;11.77;;;8.07;;
29662;SDS011;16578;53.266;7.920;2023-10-19T00:03:13;12.27;;;8.90;;
29662;SDS011;16578;53.266;7.920;2023-10-19T00:05:39;14.52;;;9.70;;
29662;SDS011;16578;53.266;7.920;2023-10-19T00:08:06;9.90;;;8.32;;
29662;SDS011;16578;53.266;7.920;2023-10-19T00:10:53;13.48;;;8.93;;
29662;SDS011;16578;53.266;7.920;2023-10-19T00:13:38;12.90;;;8.65;;
29662;SDS011;16578;53.266;7.920;2023-10-19T00:16:05;12.50;;;8.95;;
29662;SDS011;16578;53.266;7.920;2023-10-19T00:18:47;12.65;;;9.10;;
29662;SDS011;16578;53.266;7.920;2023-10-19T00:21:13;11.30;;;8.63;;
29662;SDS011;16578;53.266;7.920;2023-10-19T00:23:49;13.73;;;9.20;;
29662;SDS011;16578;53.266;7.920;2023-10-19T00:26:20;13.68;;;9.45;;
29662;SDS011;16578;53.266;7.920;2023-10-19T00:28:48;10.75;;;9.27;;
29662;SDS011;16578;53.266;7.920;2023-10-19T00:31:18;12.00;;;9.75;;
29662;SDS011;16578;53.266;7.920;2023-10-19T00:33:45;14.38;;;9.60;;
29662;SDS011;16578;53.266;7.920;2023-10-19T00:36:11;12.25;;;9.65;;
29662;SDS011;16578;53.266;7.920;2023-10-19T00:38:40;12.35;;;9.40;;
29662;SDS011;16578;53.266;7.920;2023-10-19T00:41:07;13.45;;;9.95;;
29662;SDS011;16578;53.266;7.920;2023-10-19T00:43:34;13.75;;;9.70;;
29662;SDS011;16578;53.266;7.920;2023-10-19T00:46:08;14.38;;;9.52;;
29662;SDS011;16578;53.266;7.920;2023-10-19T00:51:27;14.68;;;9.15;;
29662;SDS011;16578;53.266;7.920;2023-10-19T00:56:40;14.13;;;10.05;;
29662;SDS011;16578;53.266;7.920;2023-10-19T00:59:13;16.23;;;10.15;;
29662;SDS011;16578;53.266;7.920;2023-10-19T01:01:54;15.70;;;10.50;;
29662;SDS011;16578;53.266;7.920;2023-10-19T01:04:40;14.43;;;10.77;;
29662;SDS011;16578;53.266;7.920;2023-10-19T01:07:08;12.55;;;10.63;;
29662;SDS011;16578;53.266;7.920;2023-10-19T01:09:40;14.20;;;10.77;;
29662;SDS011;16578;53.266;7.920;2023-10-19T01:12:09;13.27;;;10.73;;
29662;SDS011;16578;53.266;7.920;2023-10-19T01:17:42;15.75;;;11.93;;
29662;SDS011;16578;53.266;7.920;2023-10-19T01:20:10;14.75;;;10.25;;
29662;SDS011;16578;53.266;7.920;2023-10-19T01:22:47;12.68;;;10.00;;
29662;SDS011;16578;53.266;7.920;2023-10-19T01:25:18;12.13;;;9.68;;
29662;SDS011;16578;53.266;7.920;2023-10-19T01:27:49;16.00;;;11.27;;
29662;SDS011;16578;53.266;7.920;2023-10-19T01:30:19;14.93;;;11.55;;
29662;SDS011;16578;53.266;7.920;2023-10-19T01:32:44;15.48;;;12.30;;
29662;SDS011;16578;53.266;7.920;2023-10-19T01:35:10;12.95;;;10.90;;
29662;SDS011;16578;53.266;7.920;2023-10-19T01:37:36;17.45;;;11.05;;
29662;SDS011;16578;53.266;7.920;2023-10-19T01:40:03;14.27;;;10.80;;
29662;SDS011;16578;53.266;7.920;2023-10-19T01:42:29;14.60;;;11.52;;
29662;SDS011;16578;53.266;7.920;2023-10-19T01:44:55;14.38;;;10.50;;
29662;SDS011;16578;53.266;7.920;2023-10-19T01:47:21;14.98;;;11.23;;
29662;SDS011;16578;53.266;7.920;2023-10-19T01:49:47;16.02;;;11.13;;
29662;SDS011;16578;53.266;7.920;2023-10-19T01:52:17;18.70;;;11.88;;
29662;SDS011;16578;53.266;7.920;2023-10-19T01:54:43;16.88;;;11.18;;
29662;SDS011;16578;53.266;7.920;2023-10-19T01:57:08;15.07;;;10.98;;
29662;SDS011;16578;53.266;7.920;2023-10-19T01:59:34;15.77;;;10.35;;
29662;SDS011;16578;53.266;7.920;2023-10-19T02:02:00;16.50;;;12.57;;
29662;SDS011;16578;53.266;7.920;2023-10-19T02:04:27;17.08;;;12.35;;
29662;SDS011;16578;53.266;7.920;2023-10-19T02:06:52;17.40;;;12.55;;
29662;SDS011;16578;53.266;7.920;2023-10-19T02:09:18;16.70;;;12.20;;
29662;SDS011;16578;53.266;7.920;2023-10-19T02:11:50;15.38;;;11.80;;
29662;SDS011;16578;53.266;7.920;2023-10-19T02:14:23;15.60;;;11.68;;
29662;SDS011;16578;53.266;7.920;2023-10-19T02:16:54;15.40;;;11.48;;
29662;SDS011;16578;53.266;7.920;2023-10-19T02:19:22;14.82;;;11.95;;
29662;SDS011;16578;53.266;7.920;2023-10-19T02:21:56;16.42;;;10.95;;
29662;SDS011;16578;53.266;7.920;2023-10-19T02:24:23;19.08;;;12.10;;
29662;SDS011;16578;53.266;7.920;2023-10-19T02:26:51;15.27;;;10.93;;
29662;SDS011;16578;53.266;7.920;2023-10-19T02:29:18;16.30;;;11.25;;
29662;SDS011;16578;53.266;7.920;2023-10-19T02:31:44;17.40;;;11.55;;
29662;SDS011;16578;53.266;7.920;2023-10-19T02:34:11;18.27;;;12.27;;
29662;SDS011;16578;53.266;7.920;2023-10-19T02:36:40;14.48;;;10.57;;
29662;SDS011;16578;53.266;7.920;2023-10-19T02:39:06;15.65;;;11.48;;
29662;SDS011;16578;53.266;7.920;2023-10-19T02:44:23;15.50;;;11.82;;
29662;SDS011;16578;53.266;7.920;2023-10-19T02:46:50;15.23;;;11.45;;
29662;SDS011;16578;53.266;7.920;2023-10-19T02:51:46;15.70;;;11.02;;
29662;SDS011;16578;53.266;7.920;2023-10-19T02:54:13;15.60;;;11.20;;
29662;SDS011;16578;53.266;7.920;2023-10-19T02:56:44;17.88;;;13.13;;
29662;SDS011;16578;53.266;7.920;2023-10-19T02:59:15;17.20;;;12.93;;
29662;SDS011;16578;53.266;7.920;2023-10-19T03:01:41;19.08;;;12.95;;
29662;SDS011;16578;53.266;7.920;2023-10-19T03:04:13;15.43;;;12.02;;
29662;SDS011;16578;53.266;7.920;2023-10-19T03:06:40;17.58;;;11.63;;
29662;SDS011;16578;53.266;7.920;2023-10-19T03:09:07;18.60;;;12.95;;
29662;SDS011;16578;53.266;7.920;2023-10-19T03:14:24;14.75;;;12.23;;
29662;SDS011;16578;53.266;7.920;2023-10-19T03:16:51;14.95;;;11.68;;
29662;SDS011;16578;53.266;7.920;2023-10-19T03:19:19;16.55;;;11.90;;
29662;SDS011;16578;53.266;7.920;2023-10-19T03:21:45;17.63;;;12.07;;
29662;SDS011;16578;53.266;7.920;2023-10-19T03:24:17;16.90;;;11.77;;
29662;SDS011;16578;53.266;7.920;2023-10-19T03:27:03;17.33;;;13.15;;
29662;SDS011;16578;53.266;7.920;2023-10-19T03:29:45;17.95;;;12.63;;
29662;SDS011;16578;53.266;7.920;2023-10-19T03:32:13;14.80;;;11.40;;
29662;SDS011;16578;53.266;7.920;2023-10-19T03:34:42;16.60;;;11.73;;
29662;SDS011;16578;53.266;7.920;2023-10-19T03:37:12;17.27;;;12.15;;
29662;SDS011;16578;53.266;7.920;2023-10-19T03:39:39;15.38;;;11.90;;
29662;SDS011;16578;53.266;7.920;2023-10-19T03:42:06;17.80;;;12.13;;
29662;SDS011;16578;53.266;7.920;2023-10-19T03:44:32;13.55;;;10.35;;
29662;SDS011;16578;53.266;7.920;2023-10-19T03:47:24;14.82;;;11.48;;
29662;SDS011;16578;53.266;7.920;2023-10-19T03:50:00;13.82;;;10.25;;
29662;SDS011;16578;53.266;7.920;2023-10-19T03:52:31;17.17;;;11.50;;
29662;SDS011;16578;53.266;7.920;2023-10-19T03:54:56;14.65;;;10.32;;
29662;SDS011;16578;53.266;7.920;2023-10-19T03:57:22;14.45;;;11.25;;
29662;SDS011;16578;53.266;7.920;2023-10-19T03:59:49;15.00;;;10.85;;
29662;SDS011;16578;53.266;7.920;2023-10-19T04:02:15;15.63;;;12.15;;
29662;SDS011;16578;53.266;7.920;2023-10-19T04:04:42;13.73;;;10.82;;
29662;SDS011;16578;53.266;7.920;2023-10-19T04:07:12;13.38;;;10.40;;
29662;SDS011;16578;53.266;7.920;2023-10-19T04:12:32;14.40;;;11.23;;
29662;SDS011;16578;53.266;7.920;2023-10-19T04:15:05;14.23;;;10.75;;
29662;SDS011;16578;53.266;7.920;2023-10-19T04:17:41;12.75;;;9.60;;
29662;SDS011;16578;53.266;7.920;2023-10-19T04:20:11;14.40;;;10.73;;
29662;SDS011;16578;53.266;7.920;2023-10-19T04:22:43;13.73;;;9.88;;
29662;SDS011;16578;53.266;7.920;2023-10-19T04:25:13;13.15;;;10.05;;
29662;SDS011;16578;53.266;7.920;2023-10-19T04:27:41;12.57;;;9.50;;
29662;SDS011;16578;53.266;7.920;2023-10-19T04:30:11;13.82;;;10.10;;
29662;SDS011;16578;53.266;7.920;2023-10-19T04:32:49;12.73;;;11.00;;
29662;SDS011;16578;53.266;7.920;2023-10-19T04:35:16;12.82;;;10.25;;
29662;SDS011;16578;53.266;7.920;2023-10-19T04:37:51;13.05;;;10.55;;
29662;SDS011;16578;53.266;7.920;2023-10-19T04:40:18;12.95;;;10.45;;
29662;SDS011;16578;53.266;7.920;2023-10-19T04:42:44;14.38;;;11.20;;
29662;SDS011;16578;53.266;7.920;2023-10-19T04:45:11;15.60;;;10.60;;
29662;SDS011;16578;53.266;7.920;2023-10-19T04:47:37;13.75;;;10.40;;
29662;SDS011;16578;53.266;7.920;2023-10-19T04:50:03;12.43;;;9.73;;
29662;SDS011;16578;53.266;7.920;2023-10-19T04:52:30;13.97;;;9.77;;
29662;SDS011;16578;53.266;7.920;2023-10-19T04:54:56;13.77;;;10.35;;
29662;SDS011;16578;53.266;7.920;2023-10-19T04:57:22;15.35;;;10.40;;
29662;SDS011;16578;53.266;7.920;2023-10-19T04:59:48;12.57;;;9.43;;
29662;SDS011;16578;53.266;7.920;2023-10-19T05:02:13;10.80;;;8.48;;
29662;SDS011;16578;53.266;7.920;2023-10-19T05:04:39;12.35;;;8.98;;
29662;SDS011;16578;53.266;7.920;2023-10-19T05:07:08;12.52;;;9.95;;
29662;SDS011;16578;53.266;7.920;2023-10-19T05:12:06;11.23;;;8.07;;
29662;SDS011;16578;53.266;7.920;2023-10-19T05:14:36;13.05;;;9.20;;
29662;SDS011;16578;53.266;7.920;2023-10-19T05:17:06;11.57;;;8.55;;
29662;SDS011;16578;53.266;7.920;2023-10-19T05:19:34;12.17;;;8.77;;
29662;SDS011;16578;53.266;7.920;2023-10-19T05:22:01;11.82;;;8.80;;
29662;SDS011;16578;53.266;7.920;2023-10-19T05:24:31;12.30;;;8.98;;
29662;SDS011;16578;53.266;7.920;2023-10-19T05:26:57;11.55;;;8.30;;
29662;SDS011;16578;53.266;7.920;2023-10-19T05:29:22;10.77;;;8.55;;
29662;SDS011;16578;53.266;7.920;2023-10-19T05:31:51;10.15;;;8.43;;
29662;SDS011;16578;53.266;7.920;2023-10-19T05:34:23;10.82;;;8.43;;
29662;SDS011;16578;53.266;7.920;2023-10-19T05:36:51;10.20;;;8.13;;
29662;SDS011;16578;53.266;7.920;2023-10-19T05:39:19;10.40;;;8.43;;
29662;SDS011;16578;53.266;7.920;2023-10-19T05:41:45;9.27;;;7.93;;
29662;SDS011;16578;53.266;7.920;2023-10-19T05:44:11;10.80;;;8.70;;
29662;SDS011;16578;53.266;7.920;2023-10-19T05:46:36;13.70;;;9.50;;
29662;SDS011;16578;53.266;7.920;2023-10-19T05:49:05;11.02;;;9.07;;
29662;SDS011;16578;53.266;7.920;2023-10-19T05:51:31;11.13;;;8.77;;
29662;SDS011;16578;53.266;7.920;2023-10-19T05:53:57;11.70;;;8.60;;
29662;SDS011;16578;53.266;7.920;2023-10-19T05:56:30;9.40;;;7.95;;
29662;SDS011;16578;53.266;7.920;2023-10-19T05:58:56;10.30;;;8.05;;
29662;SDS011;16578;53.266;7.920;2023-10-19T06:01:22;11.55;;;8.95;;
29662;SDS011;16578;53.266;7.920;2023-10-19T06:03:48;11.50;;;8.15;;
29662;SDS011;16578;53.266;7.920;2023-10-19T06:06:15;11.27;;;8.32;;
29662;SDS011;16578;53.266;7.920;2023-10-19T06:08:41;10.77;;;7.95;;
29662;SDS011;16578;53.266;7.920;2023-10-19T06:11:06;9.57;;;7.85;;
29662;SDS011;16578;53.266;7.920;2023-10-19T06:13:32;10.65;;;8.40;;
29662;SDS011;16578;53.266;7.920;2023-10-19T06:15:57;11.93;;;8.63;;
29662;SDS011;16578;53.266;7.920;2023-10-19T06:18:23;11.13;;;7.80;;
29662;SDS011;16578;53.266;7.920;2023-10-19T06:20:49;9.07;;;7.68;;
29662;SDS011;16578;53.266;7.920;2023-10-19T06:23:16;9.07;;;7.00;;
29662;SDS011;16578;53.266;7.920;2023-10-19T06:25:43;11.02;;;7.53;;
29662;SDS011;16578;53.266;7.920;2023-10-19T06:28:09;10.32;;;8.15;;
29662;SDS011;16578;53.266;7.920;2023-10-19T06:30:36;9.85;;;7.95;;
29662;SDS011;16578;53.266;7.920;2023-10-19T06:33:02;9.93;;;7.88;;
29662;SDS011;16578;53.266;7.920;2023-10-19T06:35:29;8.93;;;7.38;;
29662;SDS011;16578;53.266;7.920;2023-10-19T06:37:59;9.70;;;7.22;;
29662;SDS011;16578;53.266;7.920;2023-10-19T06:40:25;8.80;;;7.40;;
29662;SDS011;16578;53.266;7.920;2023-10-19T06:42:56;9.40;;;7.45;;
29662;SDS011;16578;53.266;7.920;2023-10-19T06:45:22;8.07;;;6.60;;
29662;SDS011;16578;53.266;7.920;2023-10-19T06:47:50;10.33;;;7.40;;
29662;SDS011;16578;53.266;7.920;2023-10-19T06:50:17;8.80;;;6.57;;
29662;SDS011;16578;53.266;7.920;2023-10-19T06:52:45;8.55;;;7.05;;
29662;SDS011;16578;53.266;7.920;2023-10-19T06:55:13;8.43;;;6.47;;
29662;SDS011;16578;53.266;7.920;2023-10-19T06:57:42;7.68;;;6.45;;
29662;SDS011;16578;53.266;7.920;2023-10-19T07:00:08;7.80;;;6.25;;
29662;SDS011;16578;53.266;7.920;2023-10-19T07:02:47;7.18;;;6.25;;
29662;SDS011;16578;53.266;7.920;2023-10-19T07:05:16;7.03;;;5.75;;
29662;SDS011;16578;53.266;7.920;2023-10-19T07:07:49;7.60;;;6.55;;
29662;SDS011;16578;53.266;7.920;2023-10-19T07:10:16;6.97;;;5.73;;
29662;SDS011;16578;53.266;7.920;2023-10-19T07:12:52;6.07;;;5.03;;
29662;SDS011;16578;53.266;7.920;2023-10-19T07:15:19;7.22;;;6.18;;
29662;SDS011;16578;53.266;7.920;2023-10-19T07:17:47;7.22;;;5.65;;
29662;SDS011;16578;53.266;7.920;2023-10-19T07:20:14;6.78;;;5.43;;
29662;SDS011;16578;53.266;7.920;2023-10-19T07:22:50;7.18;;;5.28;;
29662;SDS011;16578;53.266;7.920;2023-10-19T07:25:19;7.15;;;5.35;;
29662;SDS011;16578;53.266;7.920;2023-10-19T07:27:49;6.88;;;4.97;;
29662;SDS011;16578;53.266;7.920;2023-10-19T07:30:19;7.85;;;5.53;;
29662;SDS011;16578;53.266;7.920;2023-10-19T07:32:51;7.28;;;5.40;;
29662;SDS011;16578;53.266;7.920;2023-10-19T07:35:23;6.03;;;5.15;;
29662;SDS011;16578;53.266;7.920;2023-10-19T07:37:51;6.82;;;5.50;;
29662;SDS011;16578;53.266;7.920;2023-10-19T07:40:16;6.07;;;5.32;;
29662;SDS011;16578;53.266;7.920;2023-10-19T07:42:43;5.35;;;4.45;;
29662;SDS011;16578;53.266;7.920;2023-10-19T07:45:09;6.45;;;5.13;;
29662;SDS011;16578;53.266;7.920;2023-10-19T07:47:40;5.68;;;5.07;;
29662;SDS011;16578;53.266;7.920;2023-10-19T07:50:07;5.18;;;4.60;;
29662;SDS011;16578;53.266;7.920;2023-10-19T07:52:42;5.47;;;4.50;;
29662;SDS011;16578;53.266;7.920;2023-10-19T07:55:09;6.72;;;5.00;;
29662;SDS011;16578;53.266;7.920;2023-10-19T07:57:36;5.22;;;4.32;;
29662;SDS011;16578;53.266;7.920;2023-10-19T08:00:02;6.13;;;4.40;;
29662;SDS011;16578;53.266;7.920;2023-10-19T08:02:29;5.90;;;4.28;;
29662;SDS011;16578;53.266;7.920;2023-10-19T08:04:55;3.67;;;3.38;;
29662;SDS011;16578;53.266;7.920;2023-10-19T08:07:21;4.38;;;3.97;;
29662;SDS011;16578;53.266;7.920;2023-10-19T08:09:47;4.30;;;3.90;;
29662;SDS011;16578;53.266;7.920;2023-10-19T08:12:12;4.63;;;3.42;;
29662;SDS011;16578;53.266;7.920;2023-10-19T08:14:38;4.03;;;3.45;;
29662;SDS011;16578;53.266;7.920;2023-10-19T08:17:04;4.90;;;3.78;;
29662;SDS011;16578;53.266;7.920;2023-10-19T08:19:30;3.72;;;3.30;;
29662;SDS011;16578;53.266;7.920;2023-10-19T08:21:56;4.00;;;3.00;;
29662;SDS011;16578;53.266;7.920;2023-10-19T08:24:22;4.00;;;3.60;;
29662;SDS011;16578;53.266;7.920;2023-10-19T08:26:48;3.92;;;3.42;;
29662;SDS011;16578;53.266;7.920;2023-10-19T08:29:15;3.70;;;3.25;;
29662;SDS011;16578;53.266;7.920;2023-10-19T08:31:42;3.28;;;2.97;;
29662;SDS011;16578;53.266;7.920;2023-10-19T08:34:09;3.85;;;3.35;;
29662;SDS011;16578;53.266;7.920;2023-10-19T08:36:36;3.80;;;3.22;;
29662;SDS011;16578;53.266;7.920;2023-10-19T08:39:04;4.10;;;3.17;;
29662;SDS011;16578;53.266;7.920;2023-10-19T08:41:33;4.07;;;3.60;;
29662;SDS011;16578;53.266;7.920;2023-10-19T08:44:09;4.43;;;3.35;;
29662;SDS011;16578;53.266;7.920;2023-10-19T08:46:41;3.20;;;2.90;;
29662;SDS011;16578;53.266;7.920;2023-10-19T08:49:14;3.15;;;2.75;;
29662;SDS011;16578;53.266;7.920;2023-10-19T08:51:44;3.63;;;3.10;;
29662;SDS011;16578;53.266;7.920;2023-10-19T08:54:11;3.97;;;3.20;;
29662;SDS011;16578;53.266;7.920;2023-10-19T08:56:39;3.22;;;2.83;;
29662;SDS011;16578;53.266;7.920;2023-10-19T08:59:06;3.17;;;2.88;;
29662;SDS011;16578;53.266;7.920;2023-10-19T09:01:40;3.47;;;2.80;;
29662;SDS011;16578;53.266;7.920;2023-10-19T09:04:09;3.30;;;2.60;;
29662;SDS011;16578;53.266;7.920;2023-10-19T09:06:37;3.20;;;2.85;;
29662;SDS011;16578;53.266;7.920;2023-10-19T09:09:13;3.28;;;2.92;;
29662;SDS011;16578;53.266;7.920;2023-10-19T09:11:42;3.53;;;3.22;;
29662;SDS011;16578;53.266;7.920;2023-10-19T09:14:08;3.65;;;3.35;;
29662;SDS011;16578;53.266;7.920;2023-10-19T09:16:33;3.10;;;2.80;;
29662;SDS011;16578;53.266;7.920;2023-10-19T09:19:02;2.65;;;2.45;;
29662;SDS011;16578;53.266;7.920;2023-10-19T09:21:27;3.67;;;3.30;;
29662;SDS011;16578;53.266;7.920;2023-10-19T09:23:54;5.72;;;3.20;;
29662;SDS011;16578;53.266;7.920;2023-10-19T09:26:21;2.73;;;2.53;;
29662;SDS011;16578;53.266;7.920;2023-10-19T09:28:48;2.65;;;2.45;;
29662;SDS011;16578;53.266;7.920;2023-10-19T09:31:14;2.70;;;2.50;;
29662;SDS011;16578;53.266;7.920;2023-10-19T09:33:41;3.47;;;2.85;;
29662;SDS011;16578;53.266;7.920;2023-10-19T09:36:11;3.03;;;2.72;;
29662;SDS011;16578;53.266;7.920;2023-10-19T09:38:59;2.40;;;2.20;;
29662;SDS011;16578;53.266;7.920;2023-10-19T09:41:24;3.30;;;2.90;;
29662;SDS011;16578;53.266;7.920;2023-10-19T09:43:53;2.58;;;2.38;;
29662;SDS011;16578;53.266;7.920;2023-10-19T09:46:31;3.20;;;2.90;;
29662;SDS011;16578;53.266;7.920;2023-10-19T09:48:58;3.15;;;2.85;;
29662;SDS011;16578;53.266;7.920;2023-10-19T09:51:24;2.58;;;2.38;;
29662;SDS011;16578;53.266;7.920;2023-10-19T09:53:58;2.97;;;2.50;;
29662;SDS011;16578;53.266;7.920;2023-10-19T09:56:33;3.55;;;2.38;;
29662;SDS011;16578;53.266;7.920;2023-10-19T09:59:10;2.33;;;2.13;;
29662;SDS011;16578;53.266;7.920;2023-10-19T10:02:12;2.30;;;2.10;;
29662;SDS011;16578;53.266;7.920;2023-10-19T10:04:38;2.05;;;1.90;;
29662;SDS011;16578;53.266;7.920;2023-10-19T10:07:05;2.60;;;2.28;;
29662;SDS011;16578;53.266;7.920;2023-10-19T10:09:41;2.50;;;2.30;;
29662;SDS011;16578;53.266;7.920;2023-10-19T10:14:56;2.65;;;2.45;;
29662;SDS011;16578;53.266;7.920;2023-10-19T10:17:24;2.42;;;2.22;;
29662;SDS011;16578;53.266;7.920;2023-10-19T10:19:53;2.40;;;2.20;;
29662;SDS011;16578;53.266;7.920;2023-10-19T10:22:21;2.50;;;2.20;;
29662;SDS011;16578;53.266;7.920;2023-10-19T10:24:47;3.50;;;2.33;;
29662;SDS011;16578;53.266;7.920;2023-10-19T10:27:22;2.90;;;2.13;;
29662;SDS011;16578;53.266;7.920;2023-10-19T10:29:55;2.60;;;2.40;;
29662;SDS011;16578;53.266;7.920;2023-10-19T10:35:09;2.20;;;1.77;;
29662;SDS011;16578;53.266;7.920;2023-10-19T10:37:37;3.17;;;2.47;;
29662;SDS011;16578;53.266;7.920;2023-10-19T10:40:05;2.50;;;2.30;;
29662;SDS011;16578;53.266;7.920;2023-10-19T10:42:31;2.92;;;2.28;;
29662;SDS011;16578;53.266;7.920;2023-10-19T10:44:58;2.40;;;2.20;;
29662;SDS011;16578;53.266;7.920;2023-10-19T10:47:24;2.47;;;2.28;;
29662;SDS011;16578;53.266;7.920;2023-10-19T10:52:23;3.75;;;2.60;;
29662;SDS011;16578;53.266;7.920;2023-10-19T10:54:52;4.85;;;2.72;;
29662;SDS011;16578;53.266;7.920;2023-10-19T10:57:18;2.92;;;2.55;;
29662;SDS011;16578;53.266;7.920;2023-10-19T10:59:45;2.67;;;2.42;;
29662;SDS011;16578;53.266;7.920;2023-10-19T11:02:17;3.03;;;2.72;;
29662;SDS011;16578;53.266;7.920;2023-10-19T11:04:44;2.40;;;2.10;;
29662;SDS011;16578;53.266;7.920;2023-10-19T11:07:17;2.50;;;2.30;;
29662;SDS011;16578;53.266;7.920;2023-10-19T11:09:45;2.40;;;2.20;;
29662;SDS011;16578;53.266;7.920;2023-10-19T11:12:12;2.60;;;2.40;;
29662;SDS011;16578;53.266;7.920;2023-10-19T11:14:51;3.25;;;2.47;;
29662;SDS011;16578;53.266;7.920;2023-10-19T11:17:20;2.42;;;2.08;;
29662;SDS011;16578;53.266;7.920;2023-10-19T11:19:53;2.03;;;1.90;;
29662;SDS011;16578;53.266;7.920;2023-10-19T11:22:21;2.33;;;2.13;;
29662;SDS011;16578;53.266;7.920;2023-10-19T11:24:47;2.03;;;1.83;;
29662;SDS011;16578;53.266;7.920;2023-10-19T11:27:12;3.58;;;2.33;;
29662;SDS011;16578;53.266;7.920;2023-10-19T11:29:38;2.30;;;2.10;;
29662;SDS011;16578;53.266;7.920;2023-10-19T11:32:03;3.33;;;2.70;;
29662;SDS011;16578;53.266;7.920;2023-10-19T11:34:30;5.30;;;3.85;;
29662;SDS011;16578;53.266;7.920;2023-10-19T11:36:59;3.78;;;2.92;;
29662;SDS011;16578;53.266;7.920;2023-10-19T11:39:25;3.40;;;2.60;;
29662;SDS011;16578;53.266;7.920;2023-10-19T11:41:51;2.80;;;2.42;;
29662;SDS011;16578;53.266;7.920;2023-10-19T11:44:18;3.20;;;2.65;;
29662;SDS011;16578;53.266;7.920;2023-10-19T11:46:44;2.95;;;2.50;;
29662;SDS011;16578;53.266;7.920;2023-10-19T11:49:10;2.42;;;2.10;;
29662;SDS011;16578;53.266;7.920;2023-10-19T11:51:36;2.50;;;2.30;;
29662;SDS011;16578;53.266;7.920;2023-10-19T11:54:04;2.58;;;2.22;;
29662;SDS011;16578;53.266;7.920;2023-10-19T11:56:31;2.03;;;1.92;;
29662;SDS011;16578;53.266;7.920;2023-10-19T11:58:57;1.63;;;1.52;;
29662;SDS011;16578;53.266;7.920;2023-10-19T12:01:22;1.70;;;1.60;;
29662;SDS011;16578;53.266;7.920;2023-10-19T12:03:50;2.22;;;2.03;;
29662;SDS011;16578;53.266;7.920;2023-10-19T12:06:16;1.77;;;1.67;;
29662;SDS011;16578;53.266;7.920;2023-10-19T12:08:45;1.92;;;1.70;;
29662;SDS011;16578;53.266;7.920;2023-10-19T12:11:11;2.00;;;1.80;;
29662;SDS011;16578;53.266;7.920;2023-10-19T12:13:40;1.67;;;1.58;;
29662;SDS011;16578;53.266;7.920;2023-10-19T12:16:08;1.80;;;1.70;;
29662;SDS011;16578;53.266;7.920;2023-10-19T12:18:36;1.75;;;1.65;;
29662;SDS011;16578;53.266;7.920;2023-10-19T12:21:03;1.92;;;1.80;;
29662;SDS011;16578;53.266;7.920;2023-10-19T12:23:32;2.05;;;1.80;;
29662;SDS011;16578;53.266;7.920;2023-10-19T12:25:58;1.90;;;1.80;;
29662;SDS011;16578;53.266;7.920;2023-10-19T12:28:28;1.70;;;1.60;;
29662;SDS011;16578;53.266;7.920;2023-10-19T12:30:54;1.95;;;1.85;;
29662;SDS011;16578;53.266;7.920;2023-10-19T12:33:21;1.98;;;1.83;;
29662;SDS011;16578;53.266;7.920;2023-10-19T12:35:46;2.00;;;1.50;;
29662;SDS011;16578;53.266;7.920;2023-10-19T12:38:17;2.58;;;2.30;;
29662;SDS011;16578;53.266;7.920;2023-10-19T12:40:45;2.85;;;2.30;;
29662;SDS011;16578;53.266;7.920;2023-10-19T12:43:12;2.53;;;1.83;;
29662;SDS011;16578;53.266;7.920;2023-10-19T12:45:38;2.30;;;2.10;;
29662;SDS011;16578;53.266;7.920;2023-10-19T12:48:05;2.20;;;2.00;;
29662;SDS011;16578;53.266;7.920;2023-10-19T12:50:31;2.50;;;2.30;;
29662;SDS011;16578;53.266;7.920;2023-10-19T12:52:59;2.40;;;2.20;;
29662;SDS011;16578;53.266;7.920;2023-10-19T12:55:25;2.30;;;2.10;;
29662;SDS011;16578;53.266;7.920;2023-10-19T12:57:56;3.03;;;2.28;;
29662;SDS011;16578;53.266;7.920;2023-10-19T13:00:22;2.65;;;2.40;;
29662;SDS011;16578;53.266;7.920;2023-10-19T13:02:54;2.55;;;2.35;;
29662;SDS011;16578;53.266;7.920;2023-10-19T13:05:32;2.40;;;2.20;;
29662;SDS011;16578;53.266;7.920;2023-10-19T13:07:58;2.83;;;2.55;;
29662;SDS011;16578;53.266;7.920;2023-10-19T13:10:27;2.95;;;2.75;;
29662;SDS011;16578;53.266;7.920;2023-10-19T13:12:57;3.10;;;2.78;;
29662;SDS011;16578;53.266;7.920;2023-10-19T13:15:31;3.10;;;2.78;;
29662;SDS011;16578;53.266;7.920;2023-10-19T13:17:57;3.33;;;3.03;;
29662;SDS011;16578;53.266;7.920;2023-10-19T13:20:26;3.45;;;3.15;;
29662;SDS011;16578;53.266;7.920;2023-10-19T13:23:01;3.45;;;3.15;;
29662;SDS011;16578;53.266;7.920;2023-10-19T13:25:31;4.40;;;4.00;;
29662;SDS011;16578;53.266;7.920;2023-10-19T13:28:15;4.15;;;3.75;;
29662;SDS011;16578;53.266;7.920;2023-10-19T13:30:43;3.90;;;3.50;;
29662;SDS011;16578;53.266;7.920;2023-10-19T13:33:12;4.07;;;3.65;;
29662;SDS011;16578;53.266;7.920;2023-10-19T13:35:40;4.68;;;4.20;;
29662;SDS011;16578;53.266;7.920;2023-10-19T13:38:06;3.83;;;3.40;;
29662;SDS011;16578;53.266;7.920;2023-10-19T13:40:40;4.10;;;3.70;;
29662;SDS011;16578;53.266;7.920;2023-10-19T13:43:07;4.72;;;4.20;;
29662;SDS011;16578;53.266;7.920;2023-10-19T13:45:34;5.68;;;4.20;;
29662;SDS011;16578;53.266;7.920;2023-10-19T13:48:01;5.32;;;4.50;;
29662;SDS011;16578;53.266;7.920;2023-10-19T13:50:28;4.20;;;3.63;;
29662;SDS011;16578;53.266;7.920;2023-10-19T13:52:54;4.25;;;3.85;;
29662;SDS011;16578;53.266;7.920;2023-10-19T13:55:22;5.00;;;3.95;;
29662;SDS011;16578;53.266;7.920;2023-10-19T13:57:48;4.85;;;4.35;;
29662;SDS011;16578;53.266;7.920;2023-10-19T14:00:15;3.70;;;3.40;;
29662;SDS011;16578;53.266;7.920;2023-10-19T14:02:49;4.72;;;4.20;;
29662;SDS011;16578;53.266;7.920;2023-10-19T14:05:15;7.07;;;4.15;;
29662;SDS011;16578;53.266;7.920;2023-10-19T14:07:41;5.32;;;4.45;;
29662;SDS011;16578;53.266;7.920;2023-10-19T14:10:08;5.82;;;4.57;;
29662;SDS011;16578;53.266;7.920;2023-10-19T14:12:37;5.80;;;4.55;;
29662;SDS011;16578;53.266;7.920;2023-10-19T14:15:14;4.75;;;4.10;;
29662;SDS011;16578;53.266;7.920;2023-10-19T14:17:44;6.45;;;5.07;;
29662;SDS011;16578;53.266;7.920;2023-10-19T14:20:11;5.97;;;4.30;;
29662;SDS011;16578;53.266;7.920;2023-10-19T14:22:41;5.63;;;4.68;;
29662;SDS011;16578;53.266;7.920;2023-10-19T14:25:11;5.93;;;4.65;;
29662;SDS011;16578;53.266;7.920;2023-10-19T14:27:47;5.28;;;4.78;;
29662;SDS011;16578;53.266;7.920;2023-10-19T14:30:17;5.53;;;4.70;;
29662;SDS011;16578;53.266;7.920;2023-10-19T14:32:46;6.72;;;5.15;;
29662;SDS011;16578;53.266;7.920;2023-10-19T14:35:14;6.63;;;4.78;;
29662;SDS011;16578;53.266;7.920;2023-10-19T14:37:47;6.15;;;5.00;;
29662;SDS011;16578;53.266;7.920;2023-10-19T14:40:19;5.30;;;4.78;;
29662;SDS011;16578;53.266;7.920;2023-10-19T14:42:49;5.80;;;4.43;;
29662;SDS011;16578;53.266;7.920;2023-10-19T14:45:18;5.65;;;4.88;;
29662;SDS011;16578;53.266;7.920;2023-10-19T14:47:48;5.75;;;4.88;;
29662;SDS011;16578;53.266;7.920;2023-10-19T14:50:16;5.85;;;5.00;;
29662;SDS011;16578;53.266;7.920;2023-10-19T14:52:46;6.32;;;5.25;;
29662;SDS011;16578;53.266;7.920;2023-10-19T14:55:13;6.50;;;5.43;;
29662;SDS011;16578;53.266;7.920;2023-10-19T14:57:41;9.23;;;5.90;;
29662;SDS011;16578;53.266;7.920;2023-10-19T15:00:08;7.22;;;5.90;;
29662;SDS011;16578;53.266;7.920;2023-10-19T15:02:56;7.85;;;5.82;;
29662;SDS011;16578;53.266;7.920;2023-10-19T15:05:25;6.25;;;5.10;;
29662;SDS011;16578;53.266;7.920;2023-10-19T15:07:52;8.73;;;6.20;;
29662;SDS011;16578;53.266;7.920;2023-10-19T15:10:19;7.53;;;5.25;;
29662;SDS011;16578;53.266;7.920;2023-10-19T15:12:46;9.05;;;6.22;;
29662;SDS011;16578;53.266;7.920;2023-10-19T15:15:11;9.70;;;6.80;;
29662;SDS011;16578;53.266;7.920;2023-10-19T15:17:41;8.00;;;6.43;;